createdAt,value
2019-03-18T00:00:38.661Z,50.16
2019-03-18T00:01:42.285Z,50.16
2019-03-18T00:02:45.924Z,49.67
2019-03-18T00:03:49.670Z,49.56
2019-03-18T00:04:53.307Z,49.20
2019-03-18T00:05:56.990Z,50.72
2019-03-18T00:07:00.662Z,50.72
2019-03-18T00:08:04.299Z,50.09
2019-03-18T00:09:08.038Z,49.40
2019-03-18T00:10:11.785Z,48.72
2019-03-18T00:11:15.453Z,48.72
2019-03-18T00:12:19.501Z,49.83
2019-03-18T00:13:23.079Z,49.51
2019-03-18T00:14:26.764Z,48.90
2019-03-18T00:15:30.399Z,48.90
2019-03-18T00:16:34.064Z,49.18
2019-03-18T00:17:37.709Z,49.29
2019-03-18T00:18:41.342Z,49.29
2019-03-18T00:19:44.976Z,49.09
2019-03-18T00:20:48.532Z,49.09
2019-03-18T00:21:52.202Z,49.60
2019-03-18T00:22:55.897Z,49.60
2019-03-18T00:23:59.535Z,49.66
2019-03-18T00:25:03.663Z,49.66
2019-03-18T00:26:07.372Z,49.91
2019-03-18T00:27:11.036Z,49.82
2019-03-18T00:28:14.613Z,50.03
2019-03-18T00:29:18.247Z,50.14
2019-03-18T00:30:21.986Z,50.11
2019-03-18T00:31:25.618Z,49.97
2019-03-18T00:32:29.371Z,50.23
2019-03-18T00:33:33.015Z,50.23
2019-03-18T00:34:36.643Z,50.52
2019-03-18T00:35:40.277Z,49.91
2019-03-18T00:36:44.010Z,49.91
2019-03-18T00:37:47.690Z,50.51
2019-03-18T00:38:51.368Z,50.35
2019-03-18T00:39:54.992Z,50.51
2019-03-18T00:40:58.629Z,50.38
2019-03-18T00:42:02.257Z,50.18
2019-03-18T00:43:05.932Z,50.59
2019-03-18T00:44:09.554Z,50.70
2019-03-18T00:45:15.239Z,50.88
2019-03-18T00:46:18.546Z,50.88
2019-03-18T00:47:22.164Z,50.75
2019-03-18T00:48:25.830Z,50.88
2019-03-18T00:49:29.391Z,50.88
2019-03-18T00:50:32.953Z,50.89
2019-03-18T00:51:36.583Z,50.76
2019-03-18T00:52:40.910Z,50.37
2019-03-18T00:53:44.587Z,50.87
2019-03-18T00:54:48.202Z,50.87
2019-03-18T00:55:51.965Z,50.88
2019-03-18T00:56:55.643Z,50.98
2019-03-18T00:57:59.279Z,51.14
2019-03-18T00:59:03.338Z,51.39
2019-03-18T01:00:15.910Z,51.37
2019-03-18T01:01:19.536Z,51.19
2019-03-18T01:02:23.169Z,51.36
2019-03-18T01:03:26.796Z,51.36
2019-03-18T01:04:30.460Z,51.33
2019-03-18T01:05:34.091Z,51.40
2019-03-18T01:06:37.726Z,51.38
2019-03-18T01:07:41.681Z,51.37
2019-03-18T01:08:45.577Z,51.55
2019-03-18T01:09:49.235Z,51.62
2019-03-18T01:10:52.864Z,51.67
2019-03-18T01:11:56.496Z,52.00
2019-03-18T01:13:00.127Z,52.02
2019-03-18T01:14:04.083Z,52.28
2019-03-18T01:15:09.519Z,52.28
2019-03-18T01:16:13.149Z,52.30
2019-03-18T01:17:16.784Z,52.33
2019-03-18T01:18:20.419Z,52.44
2019-03-18T01:19:24.039Z,52.42
2019-03-18T01:20:27.700Z,52.46
2019-03-18T01:21:31.327Z,52.54
2019-03-18T01:22:34.958Z,52.25
2019-03-18T01:23:38.594Z,52.13
2019-03-18T01:24:42.222Z,52.40
2019-03-18T01:25:45.859Z,52.36
2019-03-18T01:26:49.495Z,52.22
2019-03-18T01:27:53.131Z,52.00
2019-03-18T01:28:56.856Z,51.98
2019-03-18T01:30:00.483Z,52.02
2019-03-18T01:31:04.152Z,52.44
2019-03-18T01:32:08.163Z,52.38
2019-03-18T01:33:11.793Z,52.38
2019-03-18T01:34:15.793Z,52.39
2019-03-18T01:35:19.429Z,52.72
2019-03-18T01:36:23.181Z,52.82
2019-03-18T01:37:26.801Z,52.59
2019-03-18T01:38:30.362Z,53.17
2019-03-18T01:39:34.092Z,53.49
2019-03-18T01:40:37.724Z,53.54
2019-03-18T01:41:41.382Z,53.20
2019-03-18T01:42:45.144Z,53.13
2019-03-18T01:43:48.777Z,53.82
2019-03-18T01:44:52.410Z,53.82
2019-03-18T01:45:56.378Z,53.72
2019-03-18T01:46:59.982Z,53.44
2019-03-18T01:48:03.609Z,53.50
2019-03-18T01:49:07.238Z,53.37
2019-03-18T01:50:14.940Z,53.28
2019-03-18T01:51:18.581Z,53.23
2019-03-18T01:52:22.235Z,53.61
2019-03-18T01:53:25.870Z,53.66
2019-03-18T01:54:29.499Z,53.59
2019-03-18T01:55:33.128Z,53.57
2019-03-18T01:56:36.687Z,53.82
2019-03-18T01:57:40.359Z,53.76
2019-03-18T01:58:44.000Z,53.58
2019-03-18T01:59:47.628Z,53.46
2019-03-18T02:00:51.314Z,53.71
2019-03-18T02:01:54.947Z,53.87
2019-03-18T02:02:58.607Z,53.83
2019-03-18T02:04:02.237Z,53.98
2019-03-18T02:05:07.188Z,54.05
2019-03-18T02:06:10.816Z,54.56
2019-03-18T02:07:14.443Z,54.74
2019-03-18T02:08:18.083Z,54.40
2019-03-18T02:09:22.044Z,54.00
2019-03-18T02:10:25.670Z,53.93
2019-03-18T02:11:29.299Z,54.00
2019-03-18T02:12:32.938Z,54.15
2019-03-18T02:13:36.600Z,54.32
2019-03-18T02:14:40.229Z,54.53
2019-03-18T02:15:52.598Z,54.30
2019-03-18T02:16:49.317Z,54.13
2019-03-18T02:17:53.321Z,54.49
2019-03-18T02:18:57.218Z,54.37
2019-03-18T02:20:00.847Z,54.51
2019-03-18T02:21:04.483Z,54.96
2019-03-18T02:22:08.136Z,54.75
2019-03-18T02:23:11.768Z,54.56
2019-03-18T02:24:15.432Z,54.60
2019-03-18T02:25:19.071Z,54.80
2019-03-18T02:26:22.630Z,54.58
2019-03-18T02:27:26.589Z,54.58
2019-03-18T02:28:30.161Z,54.58
2019-03-18T02:29:33.818Z,54.65
2019-03-18T02:30:37.454Z,54.63
2019-03-18T02:31:41.092Z,54.57
2019-03-18T02:32:44.725Z,54.69
2019-03-18T02:33:48.351Z,54.60
2019-03-18T02:34:52.015Z,54.52
2019-03-18T02:35:55.673Z,54.51
2019-03-18T02:36:59.304Z,54.61
2019-03-18T02:38:02.933Z,54.67
2019-03-18T02:39:07.071Z,54.66
2019-03-18T02:40:11.621Z,54.96
2019-03-18T02:41:15.245Z,55.17
2019-03-18T02:42:18.899Z,55.16
2019-03-18T02:43:22.518Z,55.17
2019-03-18T02:44:26.155Z,55.30
2019-03-18T02:45:29.805Z,55.56
2019-03-18T02:46:33.367Z,55.62
2019-03-18T02:47:37.004Z,56.01
2019-03-18T02:48:41.069Z,56.00
2019-03-18T02:49:44.700Z,55.77
2019-03-18T02:50:48.441Z,55.69
2019-03-18T02:51:53.255Z,55.81
2019-03-18T02:52:56.979Z,55.78
2019-03-18T02:54:00.612Z,55.86
2019-03-18T02:55:05.344Z,55.80
2019-03-18T02:56:09.007Z,55.73
2019-03-18T02:57:12.642Z,55.72
2019-03-18T02:58:16.271Z,55.60
2019-03-18T02:59:19.989Z,55.50
2019-03-18T03:00:23.650Z,55.88
2019-03-18T03:01:27.378Z,56.05
2019-03-18T03:02:30.933Z,56.03
2019-03-18T03:03:36.891Z,56.02
2019-03-18T03:04:39.924Z,55.89
2019-03-18T03:05:43.553Z,56.09
2019-03-18T03:06:47.198Z,56.24
2019-03-18T03:07:50.821Z,56.13
2019-03-18T03:08:54.868Z,55.94
2019-03-18T03:09:58.500Z,56.28
2019-03-18T03:11:02.147Z,56.33
2019-03-18T03:12:05.792Z,56.43
2019-03-18T03:13:09.424Z,56.34
2019-03-18T03:14:13.462Z,56.36
2019-03-18T03:15:17.100Z,56.54
2019-03-18T03:16:27.106Z,56.77
2019-03-18T03:17:26.113Z,56.69
2019-03-18T03:18:29.758Z,56.72
2019-03-18T03:19:33.393Z,56.73
2019-03-18T03:20:37.037Z,56.96
2019-03-18T03:21:40.663Z,57.12
2019-03-18T03:22:44.294Z,57.01
2019-03-18T03:23:47.933Z,56.96
2019-03-18T03:24:51.566Z,56.85
2019-03-18T03:25:55.301Z,56.89
2019-03-18T03:26:59.364Z,57.10
2019-03-18T03:28:02.921Z,57.07
2019-03-18T03:29:06.547Z,57.02
2019-03-18T03:30:14.474Z,56.77
2019-03-18T03:31:18.515Z,56.67
2019-03-18T03:32:22.134Z,56.60
2019-03-18T03:33:25.721Z,56.59
2019-03-18T03:34:29.348Z,56.71
2019-03-18T03:35:32.988Z,56.61
2019-03-18T03:36:36.620Z,56.68
2019-03-18T03:37:40.333Z,56.70
2019-03-18T03:38:44.146Z,56.57
2019-03-18T03:39:47.782Z,56.65
2019-03-18T03:40:51.412Z,56.70
2019-03-18T03:41:55.051Z,56.73
2019-03-18T03:42:58.685Z,56.73
2019-03-18T03:44:02.407Z,57.03
2019-03-18T03:45:07.960Z,56.88
2019-03-18T03:46:11.657Z,56.96
2019-03-18T03:47:15.274Z,57.18
2019-03-18T03:48:18.829Z,57.18
2019-03-18T03:49:22.477Z,56.88
2019-03-18T03:50:26.104Z,57.15
2019-03-18T03:51:29.744Z,57.29
2019-03-18T03:52:33.373Z,57.31
2019-03-18T03:53:37.003Z,57.07
2019-03-18T03:54:40.660Z,56.99
2019-03-18T03:55:44.493Z,56.90
2019-03-18T03:56:48.219Z,56.89
2019-03-18T03:57:52.054Z,57.33
2019-03-18T03:58:56.065Z,57.41
2019-03-18T04:00:00.477Z,57.30
2019-03-18T04:01:04.259Z,57.70
2019-03-18T04:02:07.924Z,57.60
2019-03-18T04:03:11.556Z,57.40
2019-03-18T04:04:15.521Z,57.31
2019-03-18T04:05:19.189Z,57.16
2019-03-18T04:06:23.050Z,57.23
2019-03-18T04:07:27.031Z,57.55
2019-03-18T04:08:30.678Z,57.61
2019-03-18T04:09:34.289Z,57.77
2019-03-18T04:10:37.981Z,58.05
2019-03-18T04:11:41.603Z,57.86
2019-03-18T04:12:45.338Z,57.71
2019-03-18T04:13:49.292Z,57.94
2019-03-18T04:14:53.301Z,58.08
2019-03-18T04:15:57.333Z,57.98
2019-03-18T04:17:02.437Z,57.85
2019-03-18T04:18:06.331Z,57.74
2019-03-18T04:19:09.959Z,58.16
2019-03-18T04:20:17.700Z,58.19
2019-03-18T04:21:21.355Z,58.20
2019-03-18T04:22:24.982Z,57.61
2019-03-18T04:23:28.622Z,59.57
2019-03-18T04:24:32.266Z,60.45
2019-03-18T04:25:35.823Z,60.90
2019-03-18T04:26:39.887Z,61.93
2019-03-18T04:27:43.545Z,62.08
2019-03-18T04:28:53.624Z,61.94
2019-03-18T04:29:57.189Z,62.99
2019-03-18T04:31:02.475Z,62.81
2019-03-18T04:32:06.166Z,64.42
2019-03-18T04:33:11.355Z,64.60
2019-03-18T04:34:15.105Z,63.32
2019-03-18T04:35:18.745Z,64.49
2019-03-18T04:36:22.395Z,64.55
2019-03-18T04:37:26.069Z,64.21
2019-03-18T04:38:29.743Z,64.06
2019-03-18T04:39:33.411Z,63.59
2019-03-18T04:40:50.357Z,63.96
2019-03-18T04:41:53.990Z,64.28
2019-03-18T04:43:00.300Z,65.88
2019-03-18T04:44:04.239Z,65.20
2019-03-18T04:45:08.876Z,63.88
2019-03-18T04:46:12.511Z,64.12
2019-03-18T04:47:16.002Z,63.93
2019-03-18T04:48:20.063Z,63.67
2019-03-18T04:49:23.700Z,64.08
2019-03-18T04:50:27.401Z,64.10
2019-03-18T04:51:31.046Z,64.30
2019-03-18T04:52:36.709Z,64.62
2019-03-18T04:53:40.381Z,64.60
2019-03-18T04:54:44.190Z,64.71
2019-03-18T04:55:49.231Z,64.53
2019-03-18T04:56:52.836Z,65.03
2019-03-18T04:57:57.502Z,65.30
2019-03-18T04:59:01.143Z,65.54
2019-03-18T05:00:07.695Z,65.36
2019-03-18T05:01:11.337Z,65.53
2019-03-18T05:02:16.782Z,65.81
2019-03-18T05:03:20.402Z,65.93
2019-03-18T05:04:24.012Z,65.96
2019-03-18T05:05:27.650Z,66.05
2019-03-18T05:06:31.282Z,65.98
2019-03-18T05:07:35.002Z,66.17
2019-03-18T05:08:38.632Z,66.24
2019-03-18T05:09:42.238Z,66.45
2019-03-18T05:10:45.865Z,66.51
2019-03-18T05:11:49.427Z,66.36
2019-03-18T05:12:53.070Z,66.57
2019-03-18T05:13:56.833Z,66.96
2019-03-18T05:15:00.541Z,66.87
2019-03-18T05:16:07.585Z,67.10
2019-03-18T05:17:25.865Z,66.68
2019-03-18T05:18:19.060Z,66.72
2019-03-18T05:19:24.327Z,65.80
2019-03-18T05:20:31.723Z,65.92
2019-03-18T05:21:35.374Z,65.95
2019-03-18T05:22:39.228Z,65.68
2019-03-18T05:23:42.837Z,65.59
2019-03-18T05:24:46.681Z,65.67
2019-03-18T05:25:50.737Z,65.75
2019-03-18T05:26:54.359Z,66.44
2019-03-18T05:27:57.918Z,66.12
2019-03-18T05:29:01.614Z,66.51
2019-03-18T05:30:11.270Z,66.29
2019-03-18T05:31:14.931Z,66.48
2019-03-18T05:32:18.573Z,66.58
2019-03-18T05:33:22.209Z,66.87
2019-03-18T05:34:25.904Z,66.81
2019-03-18T05:35:29.553Z,66.57
2019-03-18T05:36:33.215Z,66.70
2019-03-18T05:37:36.841Z,66.90
2019-03-18T05:38:40.489Z,66.95
2019-03-18T05:39:44.081Z,66.82
2019-03-18T05:40:50.639Z,66.66
2019-03-18T05:41:54.296Z,66.33
2019-03-18T05:42:58.318Z,66.12
2019-03-18T05:44:01.955Z,66.36
2019-03-18T05:45:10.294Z,66.13
2019-03-18T05:46:13.925Z,66.08
2019-03-18T05:47:17.578Z,66.00
2019-03-18T05:48:21.132Z,66.21
2019-03-18T05:49:24.760Z,65.73
2019-03-18T05:50:28.428Z,65.78
2019-03-18T05:51:32.062Z,65.67
2019-03-18T05:52:35.707Z,65.55
2019-03-18T05:53:39.750Z,65.41
2019-03-18T05:54:43.467Z,65.35
2019-03-18T05:55:49.060Z,65.42
2019-03-18T05:56:52.692Z,65.03
2019-03-18T05:57:56.323Z,65.30
2019-03-18T05:59:01.293Z,65.29
2019-03-18T06:00:10.495Z,65.23
2019-03-18T06:01:15.422Z,65.53
2019-03-18T06:02:22.183Z,65.63
2019-03-18T06:03:25.770Z,65.70
2019-03-18T06:04:29.405Z,65.39
2019-03-18T06:05:33.038Z,65.60
2019-03-18T06:06:36.718Z,65.04
2019-03-18T06:07:40.409Z,65.47
2019-03-18T06:08:44.074Z,65.47
2019-03-18T06:09:50.321Z,65.38
2019-03-18T06:10:54.064Z,64.95
2019-03-18T06:11:59.208Z,64.40
2019-03-18T06:13:03.200Z,64.46
2019-03-18T06:14:06.839Z,64.34
2019-03-18T06:15:12.460Z,63.99
2019-03-18T06:16:16.202Z,63.93
2019-03-18T06:17:20.991Z,64.04
2019-03-18T06:18:28.075Z,63.82
2019-03-18T06:19:32.828Z,63.65
2019-03-18T06:20:36.576Z,63.66
2019-03-18T06:21:41.107Z,63.52
2019-03-18T06:22:47.765Z,63.24
2019-03-18T06:23:53.187Z,63.04
2019-03-18T06:24:56.902Z,63.32
2019-03-18T06:26:00.539Z,62.92
2019-03-18T06:27:07.396Z,63.19
2019-03-18T06:28:11.266Z,62.99
2019-03-18T06:29:14.975Z,63.10
2019-03-18T06:30:18.895Z,62.58
2019-03-18T06:31:22.533Z,62.31
2019-03-18T06:32:26.178Z,62.41
2019-03-18T06:33:29.836Z,62.18
2019-03-18T06:34:33.480Z,62.35
2019-03-18T06:35:37.038Z,62.48
2019-03-18T06:36:40.676Z,62.16
2019-03-18T06:37:44.308Z,61.55
2019-03-18T06:38:47.833Z,61.02
2019-03-18T06:39:51.489Z,60.51
2019-03-18T06:40:55.114Z,60.62
2019-03-18T06:41:58.740Z,60.19
2019-03-18T06:43:02.388Z,59.62
2019-03-18T06:44:06.161Z,59.14
2019-03-18T06:45:11.226Z,58.65
2019-03-18T06:46:14.853Z,58.25
2019-03-18T06:47:18.487Z,58.33
2019-03-18T06:48:22.122Z,58.49
2019-03-18T06:49:25.646Z,58.04
2019-03-18T06:50:29.289Z,57.29
2019-03-18T06:51:33.256Z,56.99
2019-03-18T06:52:36.895Z,56.62
2019-03-18T06:53:41.822Z,56.40
2019-03-18T06:54:46.061Z,56.40
2019-03-18T06:55:49.704Z,56.19
2019-03-18T06:56:53.935Z,56.08
2019-03-18T06:57:59.918Z,55.33
2019-03-18T06:59:05.251Z,55.07
2019-03-18T07:00:15.366Z,54.92
2019-03-18T07:01:19.137Z,54.26
2019-03-18T07:02:22.772Z,54.22
2019-03-18T07:03:27.646Z,54.25
2019-03-18T07:04:31.291Z,54.65
2019-03-18T07:05:35.309Z,54.38
2019-03-18T07:06:42.577Z,53.91
2019-03-18T07:07:46.227Z,53.21
2019-03-18T07:08:49.870Z,52.47
2019-03-18T07:09:54.575Z,52.01
2019-03-18T07:11:00.886Z,52.45
2019-03-18T07:12:04.580Z,51.51
2019-03-18T07:13:08.161Z,51.88
2019-03-18T07:14:11.797Z,51.88
2019-03-18T07:15:15.771Z,52.82
2019-03-18T07:16:19.950Z,52.82
2019-03-18T07:17:23.643Z,52.10
2019-03-18T07:18:27.224Z,50.66
2019-03-18T07:19:30.866Z,50.66
2019-03-18T07:20:34.442Z,49.31
2019-03-18T07:21:38.113Z,48.76
2019-03-18T07:22:43.404Z,48.76
2019-03-18T07:23:47.049Z,47.83
2019-03-18T07:24:50.689Z,47.83
2019-03-18T07:25:54.381Z,47.97
2019-03-18T07:26:58.110Z,47.87
2019-03-18T07:28:01.768Z,47.26
2019-03-18T07:29:05.398Z,47.34
2019-03-18T07:30:14.365Z,46.89
2019-03-18T07:31:18.083Z,46.69
2019-03-18T07:32:21.849Z,45.93
2019-03-18T07:33:25.483Z,45.71
2019-03-18T07:34:29.132Z,44.70
2019-03-18T07:35:32.768Z,44.67
2019-03-18T07:36:36.403Z,44.58
2019-03-18T07:37:40.130Z,43.42
2019-03-18T07:38:43.820Z,43.77
2019-03-18T07:39:47.553Z,43.63
2019-03-18T07:40:51.198Z,43.50
2019-03-18T07:41:54.835Z,42.95
2019-03-18T07:42:58.772Z,42.62
2019-03-18T07:44:02.419Z,42.37
2019-03-18T07:45:09.096Z,42.37
2019-03-18T07:46:13.107Z,41.32
2019-03-18T07:47:16.678Z,41.23
2019-03-18T07:48:30.288Z,40.68
2019-03-18T07:49:27.380Z,39.96
2019-03-18T07:50:31.019Z,39.44
2019-03-18T07:51:34.654Z,39.53
2019-03-18T07:52:38.363Z,38.93
2019-03-18T07:53:42.007Z,37.99
2019-03-18T07:54:45.519Z,37.90
2019-03-18T07:55:49.161Z,37.15
2019-03-18T07:56:52.791Z,36.68
2019-03-18T07:57:56.467Z,36.08
2019-03-18T07:59:00.213Z,36.14
2019-03-18T08:00:05.849Z,36.80
2019-03-18T08:01:09.493Z,35.32
2019-03-18T08:02:13.136Z,34.97
2019-03-18T08:03:17.267Z,34.55
2019-03-18T08:04:22.365Z,34.22
2019-03-18T08:05:26.002Z,34.43
2019-03-18T08:06:29.646Z,33.85
2019-03-18T08:07:36.009Z,33.50
2019-03-18T08:08:40.197Z,33.27
2019-03-18T08:09:44.131Z,33.22
2019-03-18T08:10:47.774Z,33.29
2019-03-18T08:11:51.418Z,33.91
2019-03-18T08:12:55.414Z,35.22
2019-03-18T08:13:59.083Z,35.25
2019-03-18T08:15:02.758Z,34.40
2019-03-18T08:16:06.384Z,34.72
2019-03-18T08:17:10.008Z,34.47
2019-03-18T08:18:13.724Z,34.35
2019-03-18T08:19:17.353Z,34.60
2019-03-18T08:20:21.265Z,34.18
2019-03-18T08:21:24.905Z,34.32
2019-03-18T08:22:30.187Z,34.90
2019-03-18T08:23:33.822Z,34.02
2019-03-18T08:24:37.451Z,33.66
2019-03-18T08:25:41.094Z,33.50
2019-03-18T08:26:44.731Z,33.84
2019-03-18T08:27:48.356Z,34.04
2019-03-18T08:28:51.992Z,33.52
2019-03-18T08:29:55.643Z,33.36
2019-03-18T08:30:59.429Z,34.32
2019-03-18T08:32:03.143Z,33.97
2019-03-18T08:33:07.085Z,34.22
2019-03-18T08:34:10.732Z,34.46
2019-03-18T08:35:14.711Z,33.63
2019-03-18T08:36:18.379Z,34.22
2019-03-18T08:37:22.655Z,32.30
2019-03-18T08:38:26.284Z,31.78
2019-03-18T08:39:29.856Z,31.87
2019-03-18T08:40:33.507Z,32.20
2019-03-18T08:41:37.156Z,31.41
2019-03-18T08:42:40.789Z,31.65
2019-03-18T08:43:44.418Z,30.54
2019-03-18T08:44:48.049Z,30.08
2019-03-18T08:45:51.762Z,29.66
2019-03-18T08:46:55.440Z,29.33
2019-03-18T08:48:00.514Z,28.56
2019-03-18T08:49:04.160Z,28.63
2019-03-18T08:50:11.896Z,27.66
2019-03-18T08:51:14.898Z,27.36
2019-03-18T08:52:18.565Z,27.35
2019-03-18T08:53:33.236Z,26.88
2019-03-18T08:54:37.110Z,26.85
2019-03-18T08:55:41.632Z,25.71
2019-03-18T08:56:45.271Z,25.99
2019-03-18T08:57:49.265Z,25.52
2019-03-18T08:58:52.906Z,25.43
2019-03-18T08:59:56.859Z,25.38
2019-03-18T09:01:00.500Z,25.69
2019-03-18T09:02:04.449Z,25.60
2019-03-18T09:03:08.125Z,25.57
2019-03-18T09:04:11.775Z,24.55
2019-03-18T09:05:15.469Z,24.61
2019-03-18T09:06:19.427Z,24.48
2019-03-18T09:07:23.142Z,24.55
2019-03-18T09:08:26.802Z,23.95
2019-03-18T09:09:30.435Z,24.52
2019-03-18T09:10:34.074Z,24.24
2019-03-18T09:11:37.726Z,23.32
2019-03-18T09:12:41.361Z,24.14
2019-03-18T09:13:45.040Z,22.92
2019-03-18T09:14:48.708Z,22.77
2019-03-18T09:15:52.264Z,22.32
2019-03-18T09:16:55.937Z,22.36
2019-03-18T09:17:59.871Z,22.01
2019-03-18T09:19:08.586Z,21.91
2019-03-18T09:20:11.781Z,21.73
2019-03-18T09:21:15.412Z,21.58
2019-03-18T09:22:19.107Z,20.88
2019-03-18T09:23:22.673Z,20.43
2019-03-18T09:24:26.309Z,20.06
2019-03-18T09:25:29.881Z,19.45
2019-03-18T09:26:33.515Z,19.80
2019-03-18T09:27:37.177Z,20.64
2019-03-18T09:28:40.819Z,20.19
2019-03-18T09:29:44.448Z,20.46
2019-03-18T09:30:48.083Z,19.40
2019-03-18T09:31:51.656Z,18.88
2019-03-18T09:32:55.323Z,19.04
2019-03-18T09:33:58.946Z,18.76
2019-03-18T09:35:02.574Z,18.59
2019-03-18T09:36:06.209Z,18.60
2019-03-18T09:37:09.843Z,18.17
2019-03-18T09:38:13.515Z,17.85
2019-03-18T09:39:17.231Z,18.45
2019-03-18T09:40:20.972Z,18.44
2019-03-18T09:41:24.589Z,18.52
2019-03-18T09:42:28.314Z,18.37
2019-03-18T09:43:32.299Z,18.70
2019-03-18T09:44:35.920Z,18.52
2019-03-18T09:45:39.589Z,18.15
2019-03-18T09:46:43.228Z,18.19
2019-03-18T09:47:46.862Z,18.59
2019-03-18T09:48:50.419Z,18.11
2019-03-18T09:49:54.102Z,18.56
2019-03-18T09:50:57.693Z,18.66
2019-03-18T09:52:01.326Z,18.65
2019-03-18T09:53:04.958Z,18.54
2019-03-18T09:54:08.587Z,18.64
2019-03-18T09:55:12.221Z,18.34
2019-03-18T09:56:15.878Z,18.42
2019-03-18T09:57:25.952Z,17.79
2019-03-18T09:58:25.220Z,17.98
2019-03-18T09:59:30.868Z,17.95
2019-03-18T10:00:34.508Z,18.41
2019-03-18T10:01:38.169Z,18.46
2019-03-18T10:02:42.537Z,18.44
2019-03-18T10:03:46.270Z,18.51
2019-03-18T10:04:49.963Z,18.02
2019-03-18T10:05:55.231Z,18.13
2019-03-18T10:06:58.899Z,17.99
2019-03-18T10:08:02.536Z,18.91
2019-03-18T10:09:08.048Z,18.11
2019-03-18T10:10:13.563Z,17.80
2019-03-18T10:11:17.260Z,18.15
2019-03-18T10:12:20.903Z,17.82
2019-03-18T10:13:24.542Z,17.88
2019-03-18T10:14:28.254Z,18.63
2019-03-18T10:15:31.802Z,19.46
2019-03-18T10:16:35.771Z,18.71
2019-03-18T10:17:39.444Z,19.06
2019-03-18T10:18:43.076Z,19.23
2019-03-18T10:19:46.773Z,19.34
2019-03-18T10:20:50.399Z,19.17
2019-03-18T10:21:54.033Z,19.10
2019-03-18T10:22:57.699Z,18.98
2019-03-18T10:24:02.928Z,19.91
2019-03-18T10:25:08.033Z,19.37
2019-03-18T10:26:11.658Z,19.08
2019-03-18T10:27:15.289Z,19.71
2019-03-18T10:28:18.949Z,19.41
2019-03-18T10:29:22.598Z,19.29
2019-03-18T10:30:26.221Z,19.26
2019-03-18T10:31:29.857Z,19.67
2019-03-18T10:32:33.486Z,19.49
2019-03-18T10:33:37.222Z,19.60
2019-03-18T10:34:41.219Z,19.58
2019-03-18T10:35:44.847Z,20.18
2019-03-18T10:36:48.463Z,19.67
2019-03-18T10:37:52.439Z,19.78
2019-03-18T10:38:56.095Z,19.22
2019-03-18T10:39:59.728Z,19.36
2019-03-18T10:41:03.721Z,19.10
2019-03-18T10:42:07.343Z,19.03
2019-03-18T10:43:10.980Z,19.01
2019-03-18T10:44:14.967Z,19.28
2019-03-18T10:45:18.610Z,19.00
2019-03-18T10:46:22.232Z,18.64
2019-03-18T10:47:25.863Z,18.11
2019-03-18T10:48:29.509Z,18.22
2019-03-18T10:49:45.223Z,17.81
2019-03-18T10:50:38.548Z,17.49
2019-03-18T10:51:43.534Z,17.84
2019-03-18T10:52:48.430Z,17.55
2019-03-18T10:53:52.051Z,17.87
2019-03-18T10:54:55.687Z,17.03
2019-03-18T10:56:07.606Z,17.35
2019-03-18T10:57:05.093Z,17.07
2019-03-18T10:58:08.806Z,17.57
2019-03-18T10:59:12.442Z,17.56
2019-03-18T11:00:17.203Z,18.22
2019-03-18T11:01:20.800Z,18.88
2019-03-18T11:02:24.444Z,18.36
2019-03-18T11:03:28.085Z,18.44
2019-03-18T11:04:31.723Z,18.33
2019-03-18T11:05:35.460Z,18.45
2019-03-18T11:06:39.087Z,18.10
2019-03-18T11:07:42.726Z,18.51
2019-03-18T11:08:46.371Z,17.75
2019-03-18T11:09:49.996Z,18.02
2019-03-18T11:10:53.958Z,18.27
2019-03-18T11:11:57.586Z,18.02
2019-03-18T11:13:01.217Z,17.41
2019-03-18T11:14:04.848Z,17.83
2019-03-18T11:15:11.574Z,17.73
2019-03-18T11:16:15.232Z,17.44
2019-03-18T11:17:18.868Z,17.91
2019-03-18T11:18:22.500Z,17.29
2019-03-18T11:19:26.469Z,17.73
2019-03-18T11:20:30.102Z,17.96
2019-03-18T11:21:33.800Z,17.41
2019-03-18T11:22:37.331Z,17.63
2019-03-18T11:23:40.970Z,17.14
2019-03-18T11:24:44.609Z,17.08
2019-03-18T11:25:48.246Z,16.76
2019-03-18T11:26:51.914Z,16.85
2019-03-18T11:27:55.558Z,16.67
2019-03-18T11:28:59.191Z,16.64
2019-03-18T11:30:02.899Z,16.24
2019-03-18T11:31:06.531Z,16.53
2019-03-18T11:32:10.314Z,17.14
2019-03-18T11:33:13.968Z,17.20
2019-03-18T11:34:17.600Z,16.92
2019-03-18T11:35:21.434Z,17.01
2019-03-18T11:36:25.066Z,16.81
2019-03-18T11:37:28.672Z,17.43
2019-03-18T11:38:32.285Z,16.88
2019-03-18T11:39:35.905Z,16.58
2019-03-18T11:40:39.534Z,16.65
2019-03-18T11:41:43.164Z,16.37
2019-03-18T11:42:46.909Z,16.76
2019-03-18T11:43:51.801Z,16.59
2019-03-18T11:44:55.447Z,17.09
2019-03-18T11:46:00.838Z,16.62
2019-03-18T11:47:06.091Z,17.21
2019-03-18T11:48:09.846Z,17.14
2019-03-18T11:49:13.553Z,17.32
2019-03-18T11:50:19.171Z,18.10
2019-03-18T11:51:22.838Z,17.40
2019-03-18T11:52:26.484Z,17.12
2019-03-18T11:53:30.162Z,17.42
2019-03-18T11:54:33.944Z,17.20
2019-03-18T11:55:37.586Z,16.86
2019-03-18T11:56:41.566Z,16.92
2019-03-18T11:57:45.234Z,17.17
2019-03-18T11:58:49.293Z,17.50
2019-03-18T11:59:52.952Z,16.93
2019-03-18T12:00:56.588Z,16.82
2019-03-18T12:02:00.220Z,16.77
2019-03-18T12:03:04.129Z,16.77
2019-03-18T12:04:07.726Z,16.46
2019-03-18T12:05:13.754Z,16.32
2019-03-18T12:06:17.437Z,16.56
2019-03-18T12:07:21.367Z,16.36
2019-03-18T12:08:25.000Z,16.35
2019-03-18T12:09:28.659Z,16.16
2019-03-18T12:10:32.294Z,15.91
2019-03-18T12:11:35.927Z,16.26
2019-03-18T12:12:39.569Z,16.03
2019-03-18T12:13:43.191Z,15.89
2019-03-18T12:14:46.852Z,15.73
2019-03-18T12:15:50.481Z,15.51
2019-03-18T12:16:54.029Z,16.08
2019-03-18T12:17:57.659Z,15.90
2019-03-18T12:19:01.291Z,16.00
2019-03-18T12:20:07.405Z,15.86
2019-03-18T12:21:11.039Z,15.67
2019-03-18T12:22:14.671Z,15.75
2019-03-18T12:23:18.230Z,15.91
2019-03-18T12:24:21.788Z,16.15
2019-03-18T12:25:25.460Z,16.18
2019-03-18T12:26:29.091Z,16.45
2019-03-18T12:27:32.723Z,16.62
2019-03-18T12:28:36.359Z,16.43
2019-03-18T12:29:39.992Z,16.26
2019-03-18T12:30:44.083Z,17.00
2019-03-18T12:31:47.722Z,17.04
2019-03-18T12:32:51.745Z,16.79
2019-03-18T12:33:57.462Z,17.47
2019-03-18T12:35:00.770Z,17.25
2019-03-18T12:36:04.780Z,17.40
2019-03-18T12:37:08.418Z,17.78
2019-03-18T12:38:12.044Z,17.52
2019-03-18T12:39:15.672Z,17.40
2019-03-18T12:40:19.303Z,17.60
2019-03-18T12:41:23.375Z,17.88
2019-03-18T12:42:27.003Z,17.71
2019-03-18T12:43:30.575Z,17.64
2019-03-18T12:44:34.208Z,17.84
2019-03-18T12:45:38.214Z,17.95
2019-03-18T12:46:41.870Z,18.10
2019-03-18T12:47:45.502Z,18.21
2019-03-18T12:48:49.078Z,18.34
2019-03-18T12:49:52.707Z,18.08
2019-03-18T12:50:56.868Z,17.92
2019-03-18T12:52:00.583Z,17.96
2019-03-18T12:53:04.419Z,18.37
2019-03-18T12:54:08.058Z,18.66
2019-03-18T12:55:11.992Z,18.85
2019-03-18T12:56:15.611Z,18.96
2019-03-18T12:57:19.285Z,18.61
2019-03-18T12:58:22.921Z,18.11
2019-03-18T12:59:26.482Z,18.01
2019-03-18T13:00:34.976Z,18.03
2019-03-18T13:01:38.535Z,18.06
2019-03-18T13:02:42.167Z,18.10
2019-03-18T13:03:45.814Z,18.25
2019-03-18T13:04:49.808Z,18.25
2019-03-18T13:05:53.521Z,18.27
2019-03-18T13:06:57.151Z,18.28
2019-03-18T13:08:00.898Z,18.48
2019-03-18T13:09:06.864Z,18.25
2019-03-18T13:10:13.312Z,18.19
2019-03-18T13:11:16.951Z,18.75
2019-03-18T13:12:20.586Z,18.24
2019-03-18T13:13:24.257Z,18.04
2019-03-18T13:14:27.816Z,18.02
2019-03-18T13:15:31.442Z,17.63
2019-03-18T13:16:35.072Z,18.02
2019-03-18T13:17:38.699Z,18.28
2019-03-18T13:18:42.736Z,18.32
2019-03-18T13:19:46.359Z,18.23
2019-03-18T13:20:50.062Z,18.22
2019-03-18T13:21:53.713Z,18.04
2019-03-18T13:22:57.347Z,18.14
2019-03-18T13:24:01.016Z,18.77
2019-03-18T13:25:06.988Z,18.97
2019-03-18T13:26:10.697Z,18.56
2019-03-18T13:27:14.317Z,18.09
2019-03-18T13:28:17.949Z,17.98
2019-03-18T13:29:21.689Z,18.14
2019-03-18T13:30:25.925Z,18.56
2019-03-18T13:31:30.032Z,18.62
2019-03-18T13:32:33.635Z,18.39
2019-03-18T13:33:37.273Z,18.29
2019-03-18T13:34:41.106Z,18.06
2019-03-18T13:35:44.826Z,17.76
2019-03-18T13:36:48.469Z,18.17
2019-03-18T13:37:52.106Z,18.45
2019-03-18T13:38:55.738Z,18.44
2019-03-18T13:39:59.468Z,18.31
2019-03-18T13:41:05.843Z,18.69
2019-03-18T13:42:13.993Z,18.33
2019-03-18T13:43:17.667Z,18.13
2019-03-18T13:44:22.766Z,18.59